sensor_id;sensor_type;location;lat;lon;timestamp;temperature;humidity
62853;DHT22;49205;44.868;38.140;2022-07-17T00:01:32;24.90;69.90
62853;DHT22;49205;44.868;38.140;2022-07-17T00:04:01;24.70;70.20
62853;DHT22;49205;44.868;38.140;2022-07-17T00:06:30;24.60;71.10
62853;DHT22;49205;44.868;38.140;2022-07-17T00:08:59;24.50;71.30
62853;DHT22;49205;44.868;38.140;2022-07-17T00:11:28;24.60;71.60
62853;DHT22;49205;44.868;38.140;2022-07-17T00:13:57;24.60;72.10
62853;DHT22;49205;44.868;38.140;2022-07-17T00:16:26;24.60;72.00
62853;DHT22;49205;44.868;38.140;2022-07-17T00:18:55;24.60;72.20
62853;DHT22;49205;44.868;38.140;2022-07-17T00:21:24;24.60;72.20
62853;DHT22;49205;44.868;38.140;2022-07-17T00:23:53;24.60;71.90
62853;DHT22;49205;44.868;38.140;2022-07-17T00:26:22;24.60;71.70
62853;DHT22;49205;44.868;38.140;2022-07-17T00:28:51;24.60;72.00
62853;DHT22;49205;44.868;38.140;2022-07-17T00:31:20;24.60;72.30
62853;DHT22;49205;44.868;38.140;2022-07-17T00:33:50;24.60;72.40
62853;DHT22;49205;44.868;38.140;2022-07-17T00:36:19;24.60;72.10
62853;DHT22;49205;44.868;38.140;2022-07-17T00:38:47;24.60;71.90
62853;DHT22;49205;44.868;38.140;2022-07-17T00:41:16;24.50;71.80
62853;DHT22;49205;44.868;38.140;2022-07-17T00:43:45;24.40;72.10
62853;DHT22;49205;44.868;38.140;2022-07-17T00:46:14;24.30;72.60
62853;DHT22;49205;44.868;38.140;2022-07-17T00:48:43;24.20;72.90
62853;DHT22;49205;44.868;38.140;2022-07-17T00:51:12;24.20;73.30
62853;DHT22;49205;44.868;38.140;2022-07-17T00:53:43;24.30;73.50
62853;DHT22;49205;44.868;38.140;2022-07-17T00:56:13;24.30;73.50
62853;DHT22;49205;44.868;38.140;2022-07-17T00:58:44;24.30;73.50
62853;DHT22;49205;44.868;38.140;2022-07-17T01:01:13;24.40;73.70
62853;DHT22;49205;44.868;38.140;2022-07-17T01:03:42;24.40;73.60
62853;DHT22;49205;44.868;38.140;2022-07-17T01:06:11;24.40;73.30
62853;DHT22;49205;44.868;38.140;2022-07-17T01:08:40;24.40;73.30
62853;DHT22;49205;44.868;38.140;2022-07-17T01:11:09;24.40;73.20
62853;DHT22;49205;44.868;38.140;2022-07-17T01:13:38;24.40;73.40
62853;DHT22;49205;44.868;38.140;2022-07-17T01:16:08;24.40;73.50
62853;DHT22;49205;44.868;38.140;2022-07-17T01:18:37;24.40;73.60
62853;DHT22;49205;44.868;38.140;2022-07-17T01:21:06;24.30;73.50
62853;DHT22;49205;44.868;38.140;2022-07-17T01:23:35;24.30;73.50
62853;DHT22;49205;44.868;38.140;2022-07-17T01:26:04;24.30;73.40
62853;DHT22;49205;44.868;38.140;2022-07-17T01:28:33;24.30;73.30
62853;DHT22;49205;44.868;38.140;2022-07-17T01:31:02;24.30;73.30
62853;DHT22;49205;44.868;38.140;2022-07-17T01:33:31;24.30;73.60
62853;DHT22;49205;44.868;38.140;2022-07-17T01:36:00;24.30;73.70
62853;DHT22;49205;44.868;38.140;2022-07-17T01:38:29;24.30;73.70
62853;DHT22;49205;44.868;38.140;2022-07-17T01:40:58;24.30;73.70
62853;DHT22;49205;44.868;38.140;2022-07-17T01:43:28;24.30;73.80
62853;DHT22;49205;44.868;38.140;2022-07-17T01:45:56;24.30;73.90
62853;DHT22;49205;44.868;38.140;2022-07-17T01:48:27;24.30;74.00
62853;DHT22;49205;44.868;38.140;2022-07-17T01:50:57;24.30;74.10
62853;DHT22;49205;44.868;38.140;2022-07-17T01:53:26;24.30;74.30
62853;DHT22;49205;44.868;38.140;2022-07-17T01:55:55;24.30;74.30
62853;DHT22;49205;44.868;38.140;2022-07-17T01:58:24;24.30;74.40
62853;DHT22;49205;44.868;38.140;2022-07-17T02:00:53;24.30;74.50
62853;DHT22;49205;44.868;38.140;2022-07-17T02:03:22;24.30;74.20
62853;DHT22;49205;44.868;38.140;2022-07-17T02:05:51;24.20;74.00
62853;DHT22;49205;44.868;38.140;2022-07-17T02:08:20;24.10;74.40
62853;DHT22;49205;44.868;38.140;2022-07-17T02:10:49;24.10;74.60
62853;DHT22;49205;44.868;38.140;2022-07-17T02:13:18;24.10;74.60
62853;DHT22;49205;44.868;38.140;2022-07-17T02:15:47;24.00;74.60
62853;DHT22;49205;44.868;38.140;2022-07-17T02:18:16;24.00;74.40
62853;DHT22;49205;44.868;38.140;2022-07-17T02:20:45;24.00;74.90
62853;DHT22;49205;44.868;38.140;2022-07-17T02:23:16;24.00;75.30
62853;DHT22;49205;44.868;38.140;2022-07-17T02:25:45;24.00;74.90
62853;DHT22;49205;44.868;38.140;2022-07-17T02:28:14;23.90;75.00
62853;DHT22;49205;44.868;38.140;2022-07-17T02:30:43;23.90;75.30
62853;DHT22;49205;44.868;38.140;2022-07-17T02:33:12;23.90;75.40
62853;DHT22;49205;44.868;38.140;2022-07-17T02:35:41;23.90;75.30
62853;DHT22;49205;44.868;38.140;2022-07-17T02:38:10;24.00;75.30
62853;DHT22;49205;44.868;38.140;2022-07-17T02:40:39;24.10;75.40
62853;DHT22;49205;44.868;38.140;2022-07-17T02:43:10;24.10;75.30
62853;DHT22;49205;44.868;38.140;2022-07-17T02:45:39;24.20;75.00
62853;DHT22;49205;44.868;38.140;2022-07-17T02:48:07;24.10;74.90
62853;DHT22;49205;44.868;38.140;2022-07-17T02:50:36;24.10;75.20
62853;DHT22;49205;44.868;38.140;2022-07-17T02:53:05;24.00;75.30
62853;DHT22;49205;44.868;38.140;2022-07-17T02:55:34;24.00;75.30
62853;DHT22;49205;44.868;38.140;2022-07-17T02:58:03;24.00;75.10
62853;DHT22;49205;44.868;38.140;2022-07-17T03:00:32;23.90;75.10
62853;DHT22;49205;44.868;38.140;2022-07-17T03:03:01;23.90;75.20
62853;DHT22;49205;44.868;38.140;2022-07-17T03:05:30;23.80;75.50
62853;DHT22;49205;44.868;38.140;2022-07-17T03:07:59;23.80;75.80
62853;DHT22;49205;44.868;38.140;2022-07-17T03:10:28;23.80;75.70
62853;DHT22;49205;44.868;38.140;2022-07-17T03:12:57;23.90;75.60
62853;DHT22;49205;44.868;38.140;2022-07-17T03:15:26;24.00;75.60
62853;DHT22;49205;44.868;38.140;2022-07-17T03:17:55;24.10;75.50
62853;DHT22;49205;44.868;38.140;2022-07-17T03:20:24;24.20;75.10
62853;DHT22;49205;44.868;38.140;2022-07-17T03:22:53;24.30;74.70
62853;DHT22;49205;44.868;38.140;2022-07-17T03:25:22;24.30;74.40
62853;DHT22;49205;44.868;38.140;2022-07-17T03:27:50;24.20;74.30
62853;DHT22;49205;44.868;38.140;2022-07-17T03:30:19;24.20;74.40
62853;DHT22;49205;44.868;38.140;2022-07-17T03:32:48;24.20;74.50
62853;DHT22;49205;44.868;38.140;2022-07-17T03:35:18;24.20;74.70
62853;DHT22;49205;44.868;38.140;2022-07-17T03:37:47;24.40;74.60
62853;DHT22;49205;44.868;38.140;2022-07-17T03:40:16;24.50;74.30
62853;DHT22;49205;44.868;38.140;2022-07-17T03:42:44;24.50;74.20
62853;DHT22;49205;44.868;38.140;2022-07-17T03:45:14;24.60;74.10
62853;DHT22;49205;44.868;38.140;2022-07-17T03:47:43;24.60;74.00
62853;DHT22;49205;44.868;38.140;2022-07-17T03:50:12;24.60;73.80
62853;DHT22;49205;44.868;38.140;2022-07-17T03:52:41;24.60;73.70
62853;DHT22;49205;44.868;38.140;2022-07-17T03:55:10;24.60;74.00
62853;DHT22;49205;44.868;38.140;2022-07-17T03:57:39;24.50;74.30
62853;DHT22;49205;44.868;38.140;2022-07-17T04:00:08;24.50;74.50
62853;DHT22;49205;44.868;38.140;2022-07-17T04:02:40;24.40;75.00
62853;DHT22;49205;44.868;38.140;2022-07-17T04:05:09;24.30;75.30
62853;DHT22;49205;44.868;38.140;2022-07-17T04:07:39;24.30;75.60
62853;DHT22;49205;44.868;38.140;2022-07-17T04:10:09;24.30;75.70
62853;DHT22;49205;44.868;38.140;2022-07-17T04:12:38;24.30;75.70
62853;DHT22;49205;44.868;38.140;2022-07-17T04:15:08;24.40;75.70
62853;DHT22;49205;44.868;38.140;2022-07-17T04:17:37;24.50;75.70
62853;DHT22;49205;44.868;38.140;2022-07-17T04:20:07;24.70;75.60
62853;DHT22;49205;44.868;38.140;2022-07-17T04:22:36;24.90;75.10
62853;DHT22;49205;44.868;38.140;2022-07-17T04:25:05;25.10;74.00
62853;DHT22;49205;44.868;38.140;2022-07-17T04:27:34;25.20;73.50
62853;DHT22;49205;44.868;38.140;2022-07-17T04:30:03;25.30;73.10
62853;DHT22;49205;44.868;38.140;2022-07-17T04:32:32;25.40;72.90
62853;DHT22;49205;44.868;38.140;2022-07-17T04:35:01;25.60;72.50
62853;DHT22;49205;44.868;38.140;2022-07-17T04:37:30;25.70;72.20
62853;DHT22;49205;44.868;38.140;2022-07-17T04:39:59;25.80;71.70
62853;DHT22;49205;44.868;38.140;2022-07-17T04:42:28;25.90;71.20
62853;DHT22;49205;44.868;38.140;2022-07-17T04:44:57;26.00;71.10
62853;DHT22;49205;44.868;38.140;2022-07-17T04:47:26;26.10;70.90
62853;DHT22;49205;44.868;38.140;2022-07-17T04:49:55;26.20;70.40
62853;DHT22;49205;44.868;38.140;2022-07-17T04:52:24;26.20;70.20
62853;DHT22;49205;44.868;38.140;2022-07-17T04:54:53;26.30;70.20
62853;DHT22;49205;44.868;38.140;2022-07-17T04:57:22;26.40;70.00
62853;DHT22;49205;44.868;38.140;2022-07-17T04:59:51;26.50;69.60
62853;DHT22;49205;44.868;38.140;2022-07-17T05:02:20;26.60;69.40
62853;DHT22;49205;44.868;38.140;2022-07-17T05:04:49;26.70;69.10
62853;DHT22;49205;44.868;38.140;2022-07-17T05:07:19;26.80;68.60
62853;DHT22;49205;44.868;38.140;2022-07-17T05:09:48;27.00;68.40
62853;DHT22;49205;44.868;38.140;2022-07-17T05:12:17;27.00;68.10
62853;DHT22;49205;44.868;38.140;2022-07-17T05:14:46;27.10;67.80
62853;DHT22;49205;44.868;38.140;2022-07-17T05:17:15;27.20;67.40
62853;DHT22;49205;44.868;38.140;2022-07-17T05:19:44;27.30;67.00
62853;DHT22;49205;44.868;38.140;2022-07-17T05:22:14;27.20;66.70
62853;DHT22;49205;44.868;38.140;2022-07-17T05:24:43;27.20;66.90
62853;DHT22;49205;44.868;38.140;2022-07-17T05:27:12;27.20;67.10
62853;DHT22;49205;44.868;38.140;2022-07-17T05:29:41;27.30;66.80
62853;DHT22;49205;44.868;38.140;2022-07-17T05:32:10;27.40;66.40
62853;DHT22;49205;44.868;38.140;2022-07-17T05:34:39;27.40;65.70
62853;DHT22;49205;44.868;38.140;2022-07-17T05:37:08;27.40;65.60
62853;DHT22;49205;44.868;38.140;2022-07-17T05:39:37;27.50;65.30
62853;DHT22;49205;44.868;38.140;2022-07-17T05:42:07;27.50;65.20
62853;DHT22;49205;44.868;38.140;2022-07-17T05:44:36;27.60;65.90
62853;DHT22;49205;44.868;38.140;2022-07-17T05:47:05;27.70;65.30
62853;DHT22;49205;44.868;38.140;2022-07-17T05:49:34;27.80;65.30
62853;DHT22;49205;44.868;38.140;2022-07-17T05:52:03;27.90;64.40
62853;DHT22;49205;44.868;38.140;2022-07-17T05:54:32;28.00;64.10
62853;DHT22;49205;44.868;38.140;2022-07-17T05:57:01;28.10;63.90
62853;DHT22;49205;44.868;38.140;2022-07-17T05:59:30;28.20;63.30
62853;DHT22;49205;44.868;38.140;2022-07-17T06:01:59;28.20;62.60
62853;DHT22;49205;44.868;38.140;2022-07-17T06:04:28;28.20;62.20
62853;DHT22;49205;44.868;38.140;2022-07-17T06:06:57;28.30;62.40
62853;DHT22;49205;44.868;38.140;2022-07-17T06:09:26;28.40;62.50
62853;DHT22;49205;44.868;38.140;2022-07-17T06:11:55;28.40;62.10
62853;DHT22;49205;44.868;38.140;2022-07-17T06:14:24;28.50;62.10
62853;DHT22;49205;44.868;38.140;2022-07-17T06:16:52;28.60;61.80
62853;DHT22;49205;44.868;38.140;2022-07-17T06:19:21;28.60;61.70
62853;DHT22;49205;44.868;38.140;2022-07-17T06:21:50;28.60;61.50
62853;DHT22;49205;44.868;38.140;2022-07-17T06:24:19;28.60;61.30
62853;DHT22;49205;44.868;38.140;2022-07-17T06:26:48;28.70;60.60
62853;DHT22;49205;44.868;38.140;2022-07-17T06:29:18;28.70;61.10
62853;DHT22;49205;44.868;38.140;2022-07-17T06:31:47;28.70;60.50
62853;DHT22;49205;44.868;38.140;2022-07-17T06:34:16;28.80;60.10
62853;DHT22;49205;44.868;38.140;2022-07-17T06:36:45;28.80;60.10
62853;DHT22;49205;44.868;38.140;2022-07-17T06:39:14;28.90;60.30
62853;DHT22;49205;44.868;38.140;2022-07-17T06:41:43;29.00;60.30
62853;DHT22;49205;44.868;38.140;2022-07-17T06:44:12;29.10;60.40
62853;DHT22;49205;44.868;38.140;2022-07-17T06:46:41;29.30;59.80
62853;DHT22;49205;44.868;38.140;2022-07-17T06:49:10;29.30;59.30
62853;DHT22;49205;44.868;38.140;2022-07-17T06:51:39;29.40;59.50
62853;DHT22;49205;44.868;38.140;2022-07-17T06:54:08;29.50;59.10
62853;DHT22;49205;44.868;38.140;2022-07-17T06:56:38;29.60;58.50
62853;DHT22;49205;44.868;38.140;2022-07-17T06:59:07;29.60;58.50
62853;DHT22;49205;44.868;38.140;2022-07-17T07:01:37;29.70;58.40
62853;DHT22;49205;44.868;38.140;2022-07-17T07:04:06;29.70;58.10
62853;DHT22;49205;44.868;38.140;2022-07-17T07:06:34;29.80;58.40
62853;DHT22;49205;44.868;38.140;2022-07-17T07:09:03;29.80;58.20
62853;DHT22;49205;44.868;38.140;2022-07-17T07:11:33;29.80;57.90
62853;DHT22;49205;44.868;38.140;2022-07-17T07:14:02;29.80;57.80
62853;DHT22;49205;44.868;38.140;2022-07-17T07:16:31;29.70;58.40
62853;DHT22;49205;44.868;38.140;2022-07-17T07:19:00;29.80;57.80
62853;DHT22;49205;44.868;38.140;2022-07-17T07:21:29;29.80;57.50
62853;DHT22;49205;44.868;38.140;2022-07-17T07:23:58;29.70;57.30
62853;DHT22;49205;44.868;38.140;2022-07-17T07:26:27;29.60;57.20
62853;DHT22;49205;44.868;38.140;2022-07-17T07:28:56;29.50;57.40
62853;DHT22;49205;44.868;38.140;2022-07-17T07:31:25;29.60;57.40
62853;DHT22;49205;44.868;38.140;2022-07-17T07:33:54;29.60;57.30
62853;DHT22;49205;44.868;38.140;2022-07-17T07:36:23;29.70;57.30
62853;DHT22;49205;44.868;38.140;2022-07-17T07:38:52;29.80;56.90
62853;DHT22;49205;44.868;38.140;2022-07-17T07:41:21;29.80;56.40
62853;DHT22;49205;44.868;38.140;2022-07-17T07:43:50;29.80;56.40
62853;DHT22;49205;44.868;38.140;2022-07-17T07:46:19;29.80;56.30
62853;DHT22;49205;44.868;38.140;2022-07-17T07:48:48;29.80;56.30
62853;DHT22;49205;44.868;38.140;2022-07-17T07:51:17;29.80;56.70
62853;DHT22;49205;44.868;38.140;2022-07-17T07:53:46;29.90;56.40
62853;DHT22;49205;44.868;38.140;2022-07-17T07:56:15;30.00;56.10
62853;DHT22;49205;44.868;38.140;2022-07-17T07:58:44;30.10;56.00
62853;DHT22;49205;44.868;38.140;2022-07-17T08:01:13;30.30;55.60
62853;DHT22;49205;44.868;38.140;2022-07-17T08:03:42;30.40;55.80
62853;DHT22;49205;44.868;38.140;2022-07-17T08:06:11;30.40;54.80
62853;DHT22;49205;44.868;38.140;2022-07-17T08:08:41;30.40;54.20
62853;DHT22;49205;44.868;38.140;2022-07-17T08:11:10;30.40;53.90
62853;DHT22;49205;44.868;38.140;2022-07-17T08:13:39;30.50;53.70
62853;DHT22;49205;44.868;38.140;2022-07-17T08:16:09;30.60;53.10
62853;DHT22;49205;44.868;38.140;2022-07-17T08:18:37;30.60;51.80
62853;DHT22;49205;44.868;38.140;2022-07-17T08:21:06;30.60;51.50
62853;DHT22;49205;44.868;38.140;2022-07-17T08:23:35;30.60;51.20
62853;DHT22;49205;44.868;38.140;2022-07-17T08:26:04;30.60;50.70
62853;DHT22;49205;44.868;38.140;2022-07-17T08:28:33;30.70;51.00
62853;DHT22;49205;44.868;38.140;2022-07-17T08:31:02;30.80;50.90
62853;DHT22;49205;44.868;38.140;2022-07-17T08:33:31;30.80;50.40
62853;DHT22;49205;44.868;38.140;2022-07-17T08:36:00;30.90;50.60
62853;DHT22;49205;44.868;38.140;2022-07-17T08:38:29;30.90;51.00
62853;DHT22;49205;44.868;38.140;2022-07-17T08:40:58;31.00;51.20
62853;DHT22;49205;44.868;38.140;2022-07-17T08:43:27;31.10;51.30
62853;DHT22;49205;44.868;38.140;2022-07-17T08:45:57;31.20;51.40
62853;DHT22;49205;44.868;38.140;2022-07-17T08:48:28;31.20;50.50
62853;DHT22;49205;44.868;38.140;2022-07-17T08:51:00;31.30;50.50
62853;DHT22;49205;44.868;38.140;2022-07-17T08:53:29;31.30;50.30
62853;DHT22;49205;44.868;38.140;2022-07-17T08:55:58;31.40;50.20
62853;DHT22;49205;44.868;38.140;2022-07-17T08:58:27;31.40;50.20
62853;DHT22;49205;44.868;38.140;2022-07-17T09:00:56;31.40;50.00
62853;DHT22;49205;44.868;38.140;2022-07-17T09:03:25;31.40;49.80
62853;DHT22;49205;44.868;38.140;2022-07-17T09:05:54;31.50;50.00
62853;DHT22;49205;44.868;38.140;2022-07-17T09:08:23;31.50;50.30
62853;DHT22;49205;44.868;38.140;2022-07-17T09:10:53;31.50;50.30
62853;DHT22;49205;44.868;38.140;2022-07-17T09:13:27;31.60;50.80
62853;DHT22;49205;44.868;38.140;2022-07-17T09:16:07;31.60;50.80
62853;DHT22;49205;44.868;38.140;2022-07-17T09:18:46;31.60;50.60
62853;DHT22;49205;44.868;38.140;2022-07-17T09:21:24;31.70;50.60
62853;DHT22;49205;44.868;38.140;2022-07-17T09:24:03;31.70;50.80
62853;DHT22;49205;44.868;38.140;2022-07-17T09:26:30;31.70;50.60
62853;DHT22;49205;44.868;38.140;2022-07-17T09:29:02;31.70;50.60
62853;DHT22;49205;44.868;38.140;2022-07-17T09:31:32;31.80;50.30
62853;DHT22;49205;44.868;38.140;2022-07-17T09:34:01;31.80;50.50
62853;DHT22;49205;44.868;38.140;2022-07-17T09:36:31;31.80;49.90
62853;DHT22;49205;44.868;38.140;2022-07-17T09:39:00;31.80;49.30
62853;DHT22;49205;44.868;38.140;2022-07-17T09:41:29;31.80;49.80
62853;DHT22;49205;44.868;38.140;2022-07-17T09:44:00;31.90;49.90
62853;DHT22;49205;44.868;38.140;2022-07-17T09:46:32;31.90;50.10
62853;DHT22;49205;44.868;38.140;2022-07-17T09:49:06;32.00;50.60
62853;DHT22;49205;44.868;38.140;2022-07-17T09:51:39;31.90;50.50
62853;DHT22;49205;44.868;38.140;2022-07-17T09:54:09;32.00;50.70
62853;DHT22;49205;44.868;38.140;2022-07-17T09:56:41;32.00;50.50
62853;DHT22;49205;44.868;38.140;2022-07-17T09:59:13;32.10;50.20
62853;DHT22;49205;44.868;38.140;2022-07-17T10:01:43;32.20;50.10
62853;DHT22;49205;44.868;38.140;2022-07-17T10:04:12;32.30;50.10
62853;DHT22;49205;44.868;38.140;2022-07-17T10:06:42;32.50;50.00
62853;DHT22;49205;44.868;38.140;2022-07-17T10:09:11;32.70;49.80
62853;DHT22;49205;44.868;38.140;2022-07-17T10:11:42;32.70;49.70
62853;DHT22;49205;44.868;38.140;2022-07-17T10:14:12;32.70;49.50
62853;DHT22;49205;44.868;38.140;2022-07-17T10:16:41;32.60;49.10
62853;DHT22;49205;44.868;38.140;2022-07-17T10:19:17;32.40;49.10
62853;DHT22;49205;44.868;38.140;2022-07-17T10:22:00;32.20;49.00
62853;DHT22;49205;44.868;38.140;2022-07-17T10:24:29;32.00;49.40
62853;DHT22;49205;44.868;38.140;2022-07-17T10:26:59;31.90;49.60
62853;DHT22;49205;44.868;38.140;2022-07-17T10:29:38;31.80;49.60
62853;DHT22;49205;44.868;38.140;2022-07-17T10:32:14;31.80;49.70
62853;DHT22;49205;44.868;38.140;2022-07-17T10:34:52;31.80;50.00
62853;DHT22;49205;44.868;38.140;2022-07-17T10:37:22;31.90;49.90
62853;DHT22;49205;44.868;38.140;2022-07-17T10:39:57;31.90;49.60
62853;DHT22;49205;44.868;38.140;2022-07-17T10:45:14;31.80;50.20
62853;DHT22;49205;44.868;38.140;2022-07-17T10:47:55;31.90;50.00
62853;DHT22;49205;44.868;38.140;2022-07-17T10:50:32;31.90;49.80
62853;DHT22;49205;44.868;38.140;2022-07-17T10:55:47;31.90;50.50
62853;DHT22;49205;44.868;38.140;2022-07-17T10:58:37;32.00;50.10
62853;DHT22;49205;44.868;38.140;2022-07-17T11:01:09;32.00;50.00
62853;DHT22;49205;44.868;38.140;2022-07-17T11:08:52;32.30;48.90
62853;DHT22;49205;44.868;38.140;2022-07-17T11:11:35;32.30;48.90
62853;DHT22;49205;44.868;38.140;2022-07-17T11:16:48;32.40;49.20
62853;DHT22;49205;44.868;38.140;2022-07-17T11:19:37;32.50;48.50
62853;DHT22;49205;44.868;38.140;2022-07-17T11:22:08;32.50;48.50
62853;DHT22;49205;44.868;38.140;2022-07-17T11:24:43;32.60;48.50
62853;DHT22;49205;44.868;38.140;2022-07-17T11:27:24;32.70;48.60
62853;DHT22;49205;44.868;38.140;2022-07-17T11:29:43;32.80;48.40
62853;DHT22;49205;44.868;38.140;2022-07-17T11:32:12;32.90;48.20
62853;DHT22;49205;44.868;38.140;2022-07-17T11:34:41;32.80;48.40
62853;DHT22;49205;44.868;38.140;2022-07-17T11:37:11;32.70;48.30
62853;DHT22;49205;44.868;38.140;2022-07-17T11:39:47;32.70;48.10
62853;DHT22;49205;44.868;38.140;2022-07-17T11:42:19;32.70;48.30
62853;DHT22;49205;44.868;38.140;2022-07-17T11:44:54;32.80;48.30
62853;DHT22;49205;44.868;38.140;2022-07-17T11:47:25;32.70;48.20
62853;DHT22;49205;44.868;38.140;2022-07-17T11:50:13;32.70;48.30
62853;DHT22;49205;44.868;38.140;2022-07-17T11:52:47;32.70;48.20
62853;DHT22;49205;44.868;38.140;2022-07-17T11:55:19;32.70;48.50
62853;DHT22;49205;44.868;38.140;2022-07-17T11:57:49;32.80;48.30
62853;DHT22;49205;44.868;38.140;2022-07-17T12:00:19;33.00;48.10
62853;DHT22;49205;44.868;38.140;2022-07-17T12:03:03;33.00;47.80
62853;DHT22;49205;44.868;38.140;2022-07-17T12:05:34;33.10;47.30
62853;DHT22;49205;44.868;38.140;2022-07-17T12:08:07;33.20;47.00
62853;DHT22;49205;44.868;38.140;2022-07-17T12:10:34;33.10;46.60
62853;DHT22;49205;44.868;38.140;2022-07-17T12:13:04;33.10;46.70
62853;DHT22;49205;44.868;38.140;2022-07-17T12:18:06;33.10;46.60
62853;DHT22;49205;44.868;38.140;2022-07-17T12:20:45;33.20;46.70
62853;DHT22;49205;44.868;38.140;2022-07-17T12:23:37;33.30;46.30
62853;DHT22;49205;44.868;38.140;2022-07-17T12:26:09;33.20;45.60
62853;DHT22;49205;44.868;38.140;2022-07-17T12:28:39;33.20;45.90
62853;DHT22;49205;44.868;38.140;2022-07-17T12:31:08;33.10;46.30
62853;DHT22;49205;44.868;38.140;2022-07-17T12:33:55;33.10;45.90
62853;DHT22;49205;44.868;38.140;2022-07-17T12:36:25;33.10;45.90
62853;DHT22;49205;44.868;38.140;2022-07-17T12:38:54;33.20;46.00
62853;DHT22;49205;44.868;38.140;2022-07-17T12:41:23;33.20;45.70
62853;DHT22;49205;44.868;38.140;2022-07-17T12:43:51;33.20;46.10
62853;DHT22;49205;44.868;38.140;2022-07-17T12:46:20;33.20;46.50
62853;DHT22;49205;44.868;38.140;2022-07-17T12:48:49;33.20;46.30
62853;DHT22;49205;44.868;38.140;2022-07-17T12:51:18;33.30;46.00
62853;DHT22;49205;44.868;38.140;2022-07-17T12:53:47;33.30;46.10
62853;DHT22;49205;44.868;38.140;2022-07-17T12:56:16;33.40;46.00
62853;DHT22;49205;44.868;38.140;2022-07-17T12:58:48;33.40;45.50
62853;DHT22;49205;44.868;38.140;2022-07-17T13:01:17;33.40;45.30
62853;DHT22;49205;44.868;38.140;2022-07-17T13:03:47;33.50;45.20
62853;DHT22;49205;44.868;38.140;2022-07-17T13:06:16;33.50;45.20
62853;DHT22;49205;44.868;38.140;2022-07-17T13:08:45;33.50;44.80
62853;DHT22;49205;44.868;38.140;2022-07-17T13:11:14;33.40;44.80
62853;DHT22;49205;44.868;38.140;2022-07-17T13:13:43;33.30;44.70
62853;DHT22;49205;44.868;38.140;2022-07-17T13:16:12;33.30;44.50
62853;DHT22;49205;44.868;38.140;2022-07-17T13:18:41;33.20;44.30
62853;DHT22;49205;44.868;38.140;2022-07-17T13:21:10;33.10;44.40
62853;DHT22;49205;44.868;38.140;2022-07-17T13:23:40;33.20;44.50
62853;DHT22;49205;44.868;38.140;2022-07-17T13:26:09;33.20;44.90
62853;DHT22;49205;44.868;38.140;2022-07-17T13:28:37;33.20;44.20
62853;DHT22;49205;44.868;38.140;2022-07-17T13:31:06;33.10;44.50
62853;DHT22;49205;44.868;38.140;2022-07-17T13:33:36;33.10;44.10
62853;DHT22;49205;44.868;38.140;2022-07-17T13:36:05;33.20;43.70
62853;DHT22;49205;44.868;38.140;2022-07-17T13:38:34;33.20;43.70
62853;DHT22;49205;44.868;38.140;2022-07-17T13:41:03;33.20;43.70
62853;DHT22;49205;44.868;38.140;2022-07-17T13:43:33;33.20;43.60
62853;DHT22;49205;44.868;38.140;2022-07-17T13:46:02;33.20;44.00
62853;DHT22;49205;44.868;38.140;2022-07-17T13:48:31;33.20;44.30
62853;DHT22;49205;44.868;38.140;2022-07-17T13:51:00;33.20;44.00
62853;DHT22;49205;44.868;38.140;2022-07-17T13:53:29;33.20;43.80
62853;DHT22;49205;44.868;38.140;2022-07-17T13:55:58;33.30;43.70
62853;DHT22;49205;44.868;38.140;2022-07-17T13:58:27;33.40;43.40
62853;DHT22;49205;44.868;38.140;2022-07-17T14:00:56;33.40;42.70
62853;DHT22;49205;44.868;38.140;2022-07-17T14:03:24;33.30;42.80
62853;DHT22;49205;44.868;38.140;2022-07-17T14:05:53;33.30;42.90
62853;DHT22;49205;44.868;38.140;2022-07-17T14:08:22;33.30;43.20
62853;DHT22;49205;44.868;38.140;2022-07-17T14:10:51;33.30;44.00
62853;DHT22;49205;44.868;38.140;2022-07-17T14:13:20;33.30;43.90
62853;DHT22;49205;44.868;38.140;2022-07-17T14:15:49;33.30;44.30
62853;DHT22;49205;44.868;38.140;2022-07-17T14:18:18;33.40;44.70
62853;DHT22;49205;44.868;38.140;2022-07-17T14:20:47;33.40;44.10
62853;DHT22;49205;44.868;38.140;2022-07-17T14:23:16;33.30;44.00
62853;DHT22;49205;44.868;38.140;2022-07-17T14:25:46;33.20;43.70
62853;DHT22;49205;44.868;38.140;2022-07-17T14:28:15;33.20;43.90
62853;DHT22;49205;44.868;38.140;2022-07-17T14:30:44;33.10;44.40
62853;DHT22;49205;44.868;38.140;2022-07-17T14:33:13;33.00;45.20
62853;DHT22;49205;44.868;38.140;2022-07-17T14:35:42;33.00;45.80
62853;DHT22;49205;44.868;38.140;2022-07-17T14:38:11;33.00;46.10
62853;DHT22;49205;44.868;38.140;2022-07-17T14:40:40;32.90;46.60
62853;DHT22;49205;44.868;38.140;2022-07-17T14:43:09;32.90;46.90
62853;DHT22;49205;44.868;38.140;2022-07-17T14:45:38;32.90;47.20
62853;DHT22;49205;44.868;38.140;2022-07-17T14:48:07;33.00;47.40
62853;DHT22;49205;44.868;38.140;2022-07-17T14:50:36;33.00;47.20
62853;DHT22;49205;44.868;38.140;2022-07-17T14:53:05;33.00;46.90
62853;DHT22;49205;44.868;38.140;2022-07-17T14:55:34;33.00;47.00
62853;DHT22;49205;44.868;38.140;2022-07-17T14:58:03;33.00;47.40
62853;DHT22;49205;44.868;38.140;2022-07-17T15:00:32;33.00;47.90
62853;DHT22;49205;44.868;38.140;2022-07-17T15:03:01;33.00;48.40
62853;DHT22;49205;44.868;38.140;2022-07-17T15:05:30;32.90;48.80
62853;DHT22;49205;44.868;38.140;2022-07-17T15:07:59;32.90;48.90
62853;DHT22;49205;44.868;38.140;2022-07-17T15:10:28;32.70;49.30
62853;DHT22;49205;44.868;38.140;2022-07-17T15:12:57;32.70;50.20
62853;DHT22;49205;44.868;38.140;2022-07-17T15:15:26;32.60;50.10
62853;DHT22;49205;44.868;38.140;2022-07-17T15:17:55;32.60;50.50
62853;DHT22;49205;44.868;38.140;2022-07-17T15:20:25;32.60;51.00
62853;DHT22;49205;44.868;38.140;2022-07-17T15:22:54;32.50;51.90
62853;DHT22;49205;44.868;38.140;2022-07-17T15:25:23;32.50;52.60
62853;DHT22;49205;44.868;38.140;2022-07-17T15:27:52;32.40;53.10
62853;DHT22;49205;44.868;38.140;2022-07-17T15:30:21;32.40;53.20
62853;DHT22;49205;44.868;38.140;2022-07-17T15:32:50;32.40;53.50
62853;DHT22;49205;44.868;38.140;2022-07-17T15:35:19;32.30;53.90
62853;DHT22;49205;44.868;38.140;2022-07-17T15:37:48;32.30;54.30
62853;DHT22;49205;44.868;38.140;2022-07-17T15:40:17;32.10;54.70
62853;DHT22;49205;44.868;38.140;2022-07-17T15:42:49;32.00;55.10
62853;DHT22;49205;44.868;38.140;2022-07-17T15:45:18;32.00;55.60
62853;DHT22;49205;44.868;38.140;2022-07-17T15:47:48;32.00;56.10